Barlborough, United Kingdom
Current Conditions -  °F | °C
As of 6:20 AM on Saturday 20 Dec 2014 (Local Time) from EGCN Reporting Station
Broken Clouds Broken Clouds  
Wind Chill:   Ceiling: 3900
Heat Index:   Visibility: 6mi
Dew Point:   Wind: 25mph
Humidity: 71%   Direction: 270°W
Pressure: 30.03"   Gusts: 40mph
Location:  53.29°N, 1.29°W
Report Text: EGCN 200620Z 27022G35KT 9999 FEW027 SCT033 BKN039 08/03 Q1017
Loading
Personal Weather Stations






























Interactive Weather Map New forecast layout! Learn more

10-Day Weather Forecast

Advertisements
Track Severe Weather on mobile